Time;durP1;ratioP1;P1;durP2;ratioP2;P2;SDS_P1;SDS_P2;PMS_P1;PMS_P2;Temp;Humidity;BMP_temperature;BMP_pressure;BME280_temperature;BME280_humidity;BME280_pressure;Samples;Min_cycle;Max_cycle;Signal;HPM_P1;HPM_P2
2022/07/28 00:01:13;;;;;;;9.03;8.33;;;19.20;99.90;;;;;;6255220;28;20244;-61
2022/07/28 00:04:20;;;;;;;8.87;8.17;;;19.20;99.90;;;;;;6250590;28;20243;-61
2022/07/28 00:07:23;;;;;;;8.57;7.00;;;19.10;99.90;;;;;;6241496;28;20228;-62
2022/07/28 00:10:28;;;;;;;7.83;7.13;;;19.10;99.90;;;;;;6251202;28;20273;-62
2022/07/28 00:13:31;;;;;;;7.30;6.80;;;19.10;99.90;;;;;;6251695;28;20243;-62
2022/07/28 00:16:34;;;;;;;6.73;6.30;;;19.10;99.90;;;;;;6252166;28;20227;-62
2022/07/28 00:19:37;;;;;;;7.97;7.20;;;19.10;99.90;;;;;;6252088;28;20243;-62
2022/07/28 00:22:44;;;;;;;8.60;8.00;;;19.10;99.90;;;;;;6247358;28;20225;-62
2022/07/28 00:25:49;;;;;;;7.77;7.17;;;19.10;99.90;;;;;;6251707;28;20241;-62
2022/07/28 00:28:52;;;;;;;8.53;7.57;;;19.10;99.90;;;;;;6251359;28;20244;-62
2022/07/28 00:31:55;;;;;;;7.60;7.00;;;19.00;99.90;;;;;;6251830;28;20663;-62
2022/07/28 00:34:59;;;;;;;7.03;6.60;;;19.00;99.90;;;;;;6251494;28;20240;-62
2022/07/28 00:38:04;;;;;;;7.60;6.83;;;18.90;99.90;;;;;;6249940;28;20228;-62
2022/07/28 00:41:12;;;;;;;7.47;6.87;;;18.90;99.90;;;;;;6250056;28;20313;-62
2022/07/28 00:44:15;;;;;;;7.77;7.10;;;18.90;99.90;;;;;;6249616;28;20223;-62
2022/07/28 00:47:19;;;;;;;7.50;6.90;;;18.90;99.90;;;;;;6249827;28;20645;-61
2022/07/28 00:50:23;;;;;;;8.33;7.73;;;18.90;99.90;;;;;;6249493;28;20691;-62
2022/07/28 00:53:26;;;;;;;8.70;8.00;;;18.90;99.90;;;;;;6251071;28;20541;-61
2022/07/28 00:56:31;;;;;;;7.40;6.80;;;18.90;99.90;;;;;;6251273;28;20235;-61
2022/07/28 00:59:34;;;;;;;8.30;7.70;;;18.80;99.90;;;;;;6250081;28;20235;-61
2022/07/28 01:02:38;;;;;;;9.10;8.40;;;18.80;99.90;;;;;;6251070;28;20242;-61
2022/07/28 01:05:52;;;;;;;8.60;7.90;;;18.80;99.90;;;;;;6251110;28;20238;-61
2022/07/28 01:09:05;;;;;;;7.53;6.87;;;18.70;99.90;;;;;;6250692;28;20478;-62
2022/07/28 01:12:18;;;;;;;8.87;7.97;;;18.70;99.90;;;;;;6226399;28;20225;-61
2022/07/28 01:15:29;;;;;;;8.20;7.50;;;18.70;99.90;;;;;;6226290;28;20689;-61
2022/07/28 01:18:39;;;;;;;9.80;8.90;;;18.70;99.90;;;;;;6226426;28;20238;-62
2022/07/28 01:21:44;;;;;;;9.17;8.27;;;18.70;99.90;;;;;;6216274;28;20654;-62
2022/07/28 01:25:03;;;;;;;8.50;7.80;;;18.60;99.90;;;;;;6226173;28;20233;-62
2022/07/28 01:28:21;;;;;;;8.57;7.87;;;18.60;99.90;;;;;;6225975;28;20236;-63
2022/07/28 01:31:28;;;;;;;7.17;6.57;;;18.60;99.90;;;;;;6225994;28;20235;-62
2022/07/28 01:34:36;;;;;;;8.40;7.70;;;18.60;99.90;;;;;;6225684;28;20271;-62
2022/07/28 01:37:44;;;;;;;7.90;7.20;;;18.60;99.90;;;;;;6226076;28;20233;-62
2022/07/28 01:40:49;;;;;;;8.27;7.57;;;18.60;99.90;;;;;;6225578;28;20578;-62
2022/07/28 01:43:58;;;;;;;7.73;6.10;;;18.60;99.90;;;;;;6225926;28;20221;-62
2022/07/28 01:47:06;;;;;;;8.27;6.60;;;18.50;99.90;;;;;;6225756;28;20236;-62
2022/07/28 01:50:11;;;;;;;7.67;7.07;;;18.50;99.90;;;;;;6225388;28;20725;-62
2022/07/28 01:53:16;;;;;;;8.03;7.33;;;18.50;99.90;;;;;;6225460;28;20536;-62
2022/07/28 01:56:21;;;;;;;6.83;6.23;;;18.50;99.90;;;;;;6225840;28;20229;-62
2022/07/28 01:59:26;;;;;;;8.20;7.60;;;18.50;99.90;;;;;;6225085;28;20233;-62
2022/07/28 02:02:36;;;;;;;7.57;6.97;;;18.50;99.90;;;;;;6225908;28;20225;-62
2022/07/28 02:05:42;;;;;;;9.10;8.30;;;18.60;99.90;;;;;;6225197;28;20231;-61
2022/07/28 02:08:46;;;;;;;8.73;7.93;;;18.60;99.90;;;;;;6225684;28;20233;-62
2022/07/28 02:11:52;;;;;;;9.27;8.47;;;18.70;99.90;;;;;;6225198;28;20225;-62
2022/07/28 02:14:58;;;;;;;9.00;8.30;;;18.70;99.90;;;;;;6225492;28;20235;-62
2022/07/28 02:18:03;;;;;;;9.63;8.80;;;18.70;99.90;;;;;;6225606;28;20233;-62
2022/07/28 02:21:07;;;;;;;9.40;8.40;;;18.80;99.90;;;;;;6225229;28;20283;-62
2022/07/28 02:24:12;;;;;;;10.27;9.33;;;18.80;99.90;;;;;;6220512;28;20575;-62
2022/07/28 02:27:21;;;;;;;9.93;9.00;;;18.80;99.90;;;;;;6225153;28;20308;-62
2022/07/28 02:30:30;;;;;;;9.60;8.77;;;18.80;99.90;;;;;;6225298;28;20237;-62
2022/07/28 02:33:36;;;;;;;9.50;8.60;;;18.80;99.90;;;;;;6225131;28;20308;-62
2022/07/28 02:37:02;;;;;;;9.80;8.80;;;18.80;99.90;;;;;;6224993;28;20233;-62
2022/07/28 02:40:12;;;;;;;12.33;10.10;;;18.80;99.90;;;;;;6225181;28;20289;-62
2022/07/28 02:43:22;;;;;;;14.20;10.03;;;18.80;99.90;;;;;;6228620;28;20233;-62
2022/07/28 02:46:28;;;;;;;10.23;9.43;;;18.80;99.90;;;;;;6229703;28;20225;-62
2022/07/28 02:49:36;;;;;;;9.30;8.53;;;18.90;99.90;;;;;;6229693;28;20233;-62
2022/07/28 02:52:41;;;;;;;10.13;9.13;;;18.90;99.90;;;;;;6249126;28;20232;-62
2022/07/28 02:55:47;;;;;;;9.43;8.60;;;18.90;99.90;;;;;;6254072;28;20233;-61
2022/07/28 02:58:51;;;;;;;10.50;9.40;;;18.90;99.90;;;;;;6253609;28;20232;-62
2022/07/28 03:01:55;;;;;;;10.33;9.27;;;18.90;99.90;;;;;;6254371;28;20237;-62
2022/07/28 03:05:01;;;;;;;9.93;8.97;;;18.90;99.90;;;;;;6254052;28;20327;-61
2022/07/28 03:08:09;;;;;;;10.20;9.30;;;18.90;99.90;;;;;;6253613;28;20232;-62
2022/07/28 03:11:13;;;;;;;9.90;9.00;;;18.90;99.90;;;;;;6253351;28;20700;-62
2022/07/28 03:14:16;;;;;;;9.67;8.87;;;18.80;99.90;;;;;;6254111;28;20207;-62
2022/07/28 03:17:20;;;;;;;10.87;9.80;;;18.80;99.90;;;;;;6253275;28;20232;-62
2022/07/28 03:20:24;;;;;;;10.53;9.57;;;18.80;99.90;;;;;;6253452;28;20235;-61
2022/07/28 03:23:34;;;;;;;10.50;9.60;;;18.70;99.90;;;;;;6253223;28;20204;-61
2022/07/28 03:26:45;;;;;;;9.97;9.07;;;18.70;99.90;;;;;;6253403;28;20244;-61
2022/07/28 03:29:52;;;;;;;11.43;10.33;;;18.60;99.90;;;;;;6244253;28;20232;-61
2022/07/28 03:32:58;;;;;;;10.80;9.70;;;18.50;99.90;;;;;;6253515;28;20240;-61
2022/07/28 03:36:06;;;;;;;11.20;10.23;;;18.50;99.90;;;;;;6253319;28;20225;-61
2022/07/28 03:39:10;;;;;;;9.33;8.53;;;18.60;99.90;;;;;;6253065;28;20468;-61
2022/07/28 03:42:15;;;;;;;10.97;9.87;;;18.60;99.90;;;;;;6253186;28;20306;-62
2022/07/28 03:45:19;;;;;;;10.57;9.50;;;18.60;99.90;;;;;;6253021;28;20247;-62
2022/07/28 03:48:28;;;;;;;10.23;9.33;;;18.60;99.90;;;;;;6252784;28;20471;-62
2022/07/28 03:51:33;;;;;;;10.20;9.20;;;18.70;99.90;;;;;;6252977;28;20700;-62
2022/07/28 03:54:36;;;;;;;9.50;8.60;;;18.60;99.90;;;;;;6252202;28;20232;-62
2022/07/28 03:57:39;;;;;;;14.53;9.70;;;18.70;99.90;;;;;;6256941;28;20676;-62
2022/07/28 04:00:42;;;;;;;9.77;8.87;;;18.80;99.90;;;;;;6258789;28;20247;-62
2022/07/28 04:03:45;;;;;;;9.80;8.90;;;18.80;99.90;;;;;;6255141;28;20239;-62
2022/07/28 04:06:50;;;;;;;9.63;8.63;;;18.90;99.90;;;;;;6252639;28;20232;-62
2022/07/28 04:09:53;;;;;;;9.37;8.57;;;19.00;99.90;;;;;;6252157;28;20228;-62
2022/07/28 04:12:57;;;;;;;8.67;7.83;;;19.10;99.90;;;;;;6252263;28;20232;-62
2022/07/28 04:16:01;;;;;;;9.67;8.77;;;19.10;99.90;;;;;;6252255;28;20225;-62
2022/07/28 04:19:04;;;;;;;8.17;7.10;;;19.10;99.90;;;;;;6252125;28;20263;-62
2022/07/28 04:22:08;;;;;;;8.87;8.07;;;19.20;99.90;;;;;;6251986;28;20680;-62
2022/07/28 04:25:12;;;;;;;8.97;8.17;;;19.10;99.90;;;;;;6252315;28;20232;-65
2022/07/28 04:28:16;;;;;;;9.37;8.47;;;19.20;99.90;;;;;;6251829;28;20224;-65
2022/07/28 04:31:19;;;;;;;8.80;7.90;;;19.30;99.90;;;;;;6252216;28;20676;-65
2022/07/28 04:34:22;;;;;;;9.77;8.70;;;19.40;99.90;;;;;;6247278;28;20662;-66
2022/07/28 04:37:27;;;;;;;9.87;8.97;;;19.40;99.90;;;;;;6251527;28;20228;-66
2022/07/28 04:40:34;;;;;;;9.30;8.50;;;19.50;99.90;;;;;;6251516;28;20362;-66
2022/07/28 04:43:37;;;;;;;9.13;8.23;;;19.50;99.90;;;;;;6251734;28;20239;-66
2022/07/28 04:46:40;;;;;;;9.03;8.23;;;19.60;99.90;;;;;;6251705;28;20228;-66
2022/07/28 04:49:45;;;;;;;9.60;8.70;;;19.70;99.90;;;;;;6251573;28;20236;-66
2022/07/28 04:52:49;;;;;;;8.20;7.47;;;19.80;99.90;;;;;;6251492;28;20239;-66
2022/07/28 04:55:54;;;;;;;9.40;8.40;;;19.90;99.90;;;;;;6251407;28;20658;-66
2022/07/28 04:58:58;;;;;;;10.23;8.00;;;19.90;99.90;;;;;;6250821;28;20236;-66
2022/07/28 05:02:01;;;;;;;7.87;7.20;;;20.00;99.90;;;;;;6251087;28;20562;-66
2022/07/28 05:05:05;;;;;;;8.93;7.90;;;20.10;99.90;;;;;;6250245;28;20252;-66
2022/07/28 05:08:10;;;;;;;8.50;7.70;;;20.20;99.90;;;;;;6251677;28;20230;-66
2022/07/28 05:11:13;;;;;;;8.70;7.90;;;20.30;99.90;;;;;;6251897;28;20254;-66
2022/07/28 05:14:18;;;;;;;9.20;8.40;;;20.40;99.90;;;;;;6275066;28;20238;-66
2022/07/28 05:17:21;;;;;;;10.13;9.23;;;20.50;99.90;;;;;;6251084;28;20239;-66
2022/07/28 05:20:24;;;;;;;9.07;8.27;;;20.60;99.90;;;;;;6250962;28;20225;-66
2022/07/28 05:23:29;;;;;;;8.33;7.63;;;20.70;99.90;;;;;;6250496;28;20633;-66
2022/07/28 05:26:32;;;;;;;9.30;8.30;;;20.80;99.90;;;;;;6250728;28;20204;-65
2022/07/28 05:29:39;;;;;;;7.80;7.20;;;20.80;99.90;;;;;;6251029;28;20247;-65
2022/07/28 05:32:49;;;;;;;9.83;9.03;;;20.80;99.90;;;;;;6250657;28;20564;-65
2022/07/28 05:35:56;;;;;;;8.90;8.00;;;20.90;99.90;;;;;;6246055;28;20225;-66
2022/07/28 05:39:00;;;;;;;8.87;8.00;;;20.90;99.90;;;;;;6250377;28;20230;-65
2022/07/28 05:42:04;;;;;;;9.83;8.97;;;20.80;99.90;;;;;;6250283;28;20687;-65
2022/07/28 05:45:09;;;;;;;10.27;9.40;;;20.70;99.90;;;;;;6250401;28;20315;-66
2022/07/28 05:48:20;;;;;;;11.40;10.07;;;20.60;99.90;;;;;;6250119;28;20250;-65
2022/07/28 05:51:23;;;;;;;9.97;9.07;;;20.50;99.90;;;;;;6249872;28;20232;-66
2022/07/28 05:54:28;;;;;;;9.17;8.37;;;20.50;99.90;;;;;;6250003;28;20255;-65
2022/07/28 05:57:31;;;;;;;9.70;8.80;;;20.50;99.90;;;;;;6250154;28;20683;-65
2022/07/28 06:00:34;;;;;;;10.10;9.10;;;20.50;99.90;;;;;;6249601;28;20246;-66
2022/07/28 06:03:37;;;;;;;8.17;7.50;;;20.70;99.90;;;;;;6250340;28;20254;-66
2022/07/28 06:06:44;;;;;;;10.93;8.60;;;20.80;99.90;;;;;;6250187;28;20236;-66
2022/07/28 06:09:48;;;;;;;8.80;7.23;;;20.90;99.90;;;;;;6249660;28;20554;-65
2022/07/28 06:12:53;;;;;;;9.80;7.83;;;21.00;99.90;;;;;;6249645;28;20236;-65
2022/07/28 06:15:57;;;;;;;9.03;8.20;;;21.10;99.90;;;;;;6251237;28;20238;-65
2022/07/28 06:19:01;;;;;;;17.00;10.47;;;21.20;99.90;;;;;;6254699;28;20252;-65
2022/07/28 06:22:05;;;;;;;12.03;10.03;;;21.30;99.90;;;;;;6254946;28;20232;-66
2022/07/28 06:25:12;;;;;;;11.73;10.03;;;21.50;99.90;;;;;;6253604;28;20915;-66
2022/07/28 06:28:17;;;;;;;10.80;8.70;;;21.70;99.90;;;;;;6250930;28;20216;-65
2022/07/28 06:31:20;;;;;;;9.30;8.20;;;21.70;99.90;;;;;;6254100;28;20224;-65
2022/07/28 06:34:24;;;;;;;9.53;8.57;;;21.90;99.90;;;;;;6253157;28;20329;-65
2022/07/28 06:37:27;;;;;;;8.43;7.63;;;22.20;99.90;;;;;;6249574;28;20235;-67
2022/07/28 06:40:31;;;;;;;8.13;7.33;;;22.40;99.90;;;;;;6253440;28;20224;-66
2022/07/28 06:43:34;;;;;;;8.07;7.37;;;22.90;99.90;;;;;;6253596;28;20220;-66
2022/07/28 06:46:41;;;;;;;8.93;8.13;;;23.30;99.90;;;;;;6250853;28;20573;-64
2022/07/28 06:49:44;;;;;;;7.37;6.67;;;23.80;99.90;;;;;;6252699;28;20319;-65
2022/07/28 06:52:48;;;;;;;8.50;7.07;;;23.90;99.90;;;;;;6253419;28;20247;-65
2022/07/28 06:55:52;;;;;;;7.83;7.23;;;23.90;99.90;;;;;;6253876;28;20236;-66
2022/07/28 06:58:56;;;;;;;8.07;7.23;;;24.00;99.90;;;;;;6254165;28;20359;-65
2022/07/28 07:02:01;;;;;;;7.10;6.40;;;24.00;99.90;;;;;;6254027;28;20239;-66
2022/07/28 07:05:04;;;;;;;7.00;6.40;;;24.00;99.90;;;;;;6253946;28;20243;-65
2022/07/28 07:08:07;;;;;;;8.70;6.93;;;23.90;99.90;;;;;;6254321;28;20249;-64
2022/07/28 07:11:12;;;;;;;7.67;6.93;;;23.90;99.90;;;;;;6254193;28;20723;-65
2022/07/28 07:14:15;;;;;;;7.73;7.13;;;23.80;99.90;;;;;;6254365;28;20229;-65
2022/07/28 07:17:19;;;;;;;7.03;6.40;;;23.70;99.90;;;;;;6253898;28;20204;-66
2022/07/28 07:20:22;;;;;;;7.60;7.00;;;23.70;99.90;;;;;;6253207;28;20315;-65
2022/07/28 07:23:25;;;;;;;9.20;7.40;;;23.80;99.90;;;;;;6253650;28;20628;-65
2022/07/28 07:26:29;;;;;;;7.07;6.47;;;23.90;99.90;;;;;;6253556;28;20211;-65
2022/07/28 07:29:33;;;;;;;7.40;6.80;;;24.10;99.90;;;;;;6252780;28;20308;-66
2022/07/28 07:32:37;;;;;;;8.23;7.53;;;24.20;99.90;;;;;;6253192;28;20228;-66
2022/07/28 07:35:40;;;;;;;7.27;6.67;;;24.50;99.90;;;;;;6253432;28;20225;-66
2022/07/28 07:38:44;;;;;;;7.83;7.17;;;24.90;99.90;;;;;;6248607;28;20232;-66
2022/07/28 07:41:48;;;;;;;7.97;7.13;;;25.30;99.90;;;;;;6253078;28;20228;-66
2022/07/28 07:44:52;;;;;;;6.80;6.30;;;25.50;99.50;;;;;;6253163;28;20242;-67
2022/07/28 07:47:55;;;;;;;8.23;6.50;;;25.50;99.70;;;;;;6253345;28;20231;-66
2022/07/28 07:50:58;;;;;;;7.03;6.43;;;25.50;99.70;;;;;;6252630;28;20220;-65
2022/07/28 07:54:01;;;;;;;7.30;6.60;;;25.60;99.70;;;;;;6253079;28;20235;-66
2022/07/28 07:57:06;;;;;;;6.97;6.30;;;25.80;99.60;;;;;;6252833;28;20220;-66
2022/07/28 08:00:10;;;;;;;8.17;7.50;;;25.90;99.20;;;;;;6240226;28;20232;-65
2022/07/28 08:03:31;;;;;;;7.03;6.43;;;26.10;99.00;;;;;;6238085;28;20700;-65
2022/07/28 08:06:34;;;;;;;7.80;7.20;;;26.30;98.20;;;;;;6251599;28;20266;-65
2022/07/28 08:09:37;;;;;;;7.07;6.57;;;26.50;97.70;;;;;;6228331;28;20247;-64
2022/07/28 08:12:42;;;;;;;8.50;6.47;;;27.80;97.00;;;;;;6226363;28;20233;-64
2022/07/28 08:15:45;;;;;;;7.50;6.90;;;29.60;93.80;;;;;;6234039;28;20228;-65
2022/07/28 08:18:49;;;;;;;6.10;5.70;;;31.10;90.80;;;;;;6251221;28;20256;-65
2022/07/28 08:21:52;;;;;;;6.53;6.03;;;33.00;79.00;;;;;;6252011;28;20310;-66
2022/07/28 08:24:55;;;;;;;6.07;5.57;;;34.80;69.90;;;;;;6251941;28;20311;-65
2022/07/28 08:27:59;;;;;;;5.10;4.80;;;35.90;62.00;;;;;;6251625;28;20690;-65
2022/07/28 08:31:03;;;;;;;6.55;5.95;;;36.90;56.80;;;;;;6251077;28;20228;-65
2022/07/28 08:34:06;;;;;;;6.45;5.85;;;36.80;54.50;;;;;;6233344;28;20228;-67
2022/07/28 08:37:29;;;;;;;5.70;5.30;;;36.30;53.60;;;;;;6226451;28;20255;-66
2022/07/28 08:40:32;;;;;;;5.50;5.00;;;35.50;54.10;;;;;;6224883;28;20228;-65
2022/07/28 08:43:41;;;;;;;5.93;5.53;;;35.00;54.50;;;;;;6226102;28;20239;-65
2022/07/28 08:46:46;;;;;;;6.72;5.60;;;34.70;54.20;;;;;;6221855;28;20731;-65
2022/07/28 08:49:54;;;;;;;5.93;5.53;;;34.40;54.40;;;;;;6225458;28;20243;-66
2022/07/28 08:52:59;;;;;;;6.40;5.28;;;34.00;54.60;;;;;;6225217;28;20224;-66
2022/07/28 08:56:05;;;;;;;5.25;4.85;;;33.60;54.40;;;;;;6225090;28;20311;-67
2022/07/28 08:59:10;;;;;;;5.60;5.20;;;33.20;55.80;;;;;;6226590;28;20251;-66
2022/07/28 09:02:14;;;;;;;6.22;5.72;;;32.90;55.20;;;;;;6250338;28;20227;-65
2022/07/28 09:05:19;;;;;;;5.72;5.30;;;32.60;56.00;;;;;;6274376;28;20592;-65
2022/07/28 09:08:22;;;;;;;5.30;4.90;;;32.30;55.60;;;;;;6231258;28;20224;-64
2022/07/28 09:11:27;;;;;;;5.95;5.55;;;32.10;55.50;;;;;;6225678;28;20204;-64
2022/07/28 09:14:33;;;;;;;10.23;5.63;;;32.00;55.60;;;;;;6225045;28;20781;-64
2022/07/28 09:17:37;;;;;;;6.13;5.70;;;32.00;55.80;;;;;;6225532;28;20228;-64
2022/07/28 09:20:41;;;;;;;5.72;5.30;;;31.90;56.10;;;;;;6225303;28;20278;-63
2022/07/28 09:23:46;;;;;;;5.75;5.25;;;31.90;56.00;;;;;;6225215;28;20304;-64
2022/07/28 09:27:00;;;;;;;5.72;5.22;;;31.90;56.20;;;;;;6225153;28;20691;-67
2022/07/28 09:30:05;;;;;;;5.35;4.85;;;31.50;56.20;;;;;;6225606;28;20243;-67
2022/07/28 09:33:13;;;;;;;8.15;5.28;;;31.20;57.40;;;;;;6226177;28;20224;-66
2022/07/28 09:36:38;;;;;;;5.95;5.45;;;30.90;57.30;;;;;;6250003;28;20242;-64
2022/07/28 09:39:41;;;;;;;5.30;4.90;;;30.40;58.50;;;;;;6249405;28;20232;-64
2022/07/28 09:42:48;;;;;;;7.00;6.30;;;30.30;58.90;;;;;;6249683;28;20238;-66
2022/07/28 09:46:03;;;;;;;7.55;6.85;;;30.30;58.70;;;;;;6249665;28;20247;-69
2022/07/28 09:49:06;;;;;;;6.53;5.60;;;30.20;59.50;;;;;;6240108;28;20243;-70
2022/07/28 09:52:11;;;;;;;5.60;5.20;;;30.10;59.30;;;;;;6248916;28;20613;-71
2022/07/28 09:55:14;;;;;;;5.97;5.40;;;30.10;58.90;;;;;;6249140;28;20242;-71
2022/07/28 09:58:18;;;;;;;5.97;5.43;;;29.90;58.80;;;;;;6248512;28;20599;-70
2022/07/28 10:01:27;;;;;;;7.03;5.50;;;29.50;59.80;;;;;;6234451;28;20240;-65
2022/07/28 10:04:40;;;;;;;6.20;5.60;;;29.50;60.20;;;;;;6224418;28;20228;-65
2022/07/28 10:07:48;;;;;;;5.20;4.70;;;29.40;59.30;;;;;;6224368;28;20549;-66
2022/07/28 10:11:01;;;;;;;5.23;4.30;;;29.30;57.80;;;;;;6224241;28;20232;-66
2022/07/28 10:14:05;;;;;;;5.13;4.73;;;29.40;58.00;;;;;;6224341;28;20235;-65
2022/07/28 10:17:10;;;;;;;6.50;4.53;;;29.50;57.80;;;;;;6224455;28;20677;-67
2022/07/28 10:20:15;;;;;;;5.40;4.60;;;29.50;57.20;;;;;;6223920;28;20239;-67
2022/07/28 10:23:20;;;;;;;5.50;4.17;;;29.60;57.90;;;;;;6247965;28;20207;-67
2022/07/28 10:26:28;;;;;;;5.23;4.23;;;29.70;57.90;;;;;;6224448;28;20200;-67
2022/07/28 10:29:32;;;;;;;9.90;6.85;;;29.80;57.00;;;;;;6223871;28;20684;-67
2022/07/28 10:32:41;;;;;;;6.63;5.93;;;29.80;58.40;;;;;;6224315;28;20691;-67
2022/07/28 10:35:48;;;;;;;5.40;5.00;;;29.70;58.50;;;;;;6225389;28;20240;-66
2022/07/28 10:39:04;;;;;;;5.67;5.10;;;29.80;58.00;;;;;;6225533;28;20239;-67
2022/07/28 10:42:10;;;;;;;5.50;5.00;;;29.90;57.90;;;;;;6224116;28;20378;-68
2022/07/28 10:45:14;;;;;;;5.43;4.93;;;29.80;57.90;;;;;;6224807;28;20232;-66
2022/07/28 10:48:20;;;;;;;4.77;4.33;;;29.90;58.10;;;;;;6225525;28;20239;-65
2022/07/28 10:51:27;;;;;;;5.73;5.23;;;30.00;58.10;;;;;;6221172;28;20295;-66
2022/07/28 10:54:38;;;;;;;5.30;4.80;;;30.10;57.10;;;;;;6225710;28;20665;-67
2022/07/28 10:57:54;;;;;;;7.63;4.60;;;30.10;57.60;;;;;;6225519;28;20231;-64
2022/07/28 11:01:06;;;;;;;5.47;4.97;;;30.20;57.10;;;;;;6225516;28;20224;-68
2022/07/28 11:04:50;;;;;;;4.38;3.97;;;30.20;56.40;;;;;;6236583;28;20229;-66
2022/07/28 11:07:56;;;;;;;5.47;4.97;;;30.20;56.00;;;;;;6253675;28;20688;-66
2022/07/28 11:11:00;;;;;;;4.63;4.23;;;30.20;55.90;;;;;;6238306;28;20238;-66
2022/07/28 11:14:34;;;;;;;5.20;4.70;;;30.20;55.50;;;;;;6229230;28;20715;-67
2022/07/28 11:17:40;;;;;;;4.93;4.53;;;30.30;54.70;;;;;;6229518;28;20295;-66
2022/07/28 11:21:06;;;;;;;4.40;4.10;;;30.30;54.10;;;;;;6228956;28;20228;-67
2022/07/28 11:24:11;;;;;;;4.40;4.00;;;30.50;54.50;;;;;;6229322;28;20246;-66
2022/07/28 11:27:59;;;;;;;5.65;5.25;;;30.50;54.30;;;;;;6228546;28;20233;-64
2022/07/28 11:31:02;;;;;;;5.97;5.38;;;30.30;55.40;;;;;;6227772;28;20238;-66
2022/07/28 11:34:07;;;;;;;6.30;5.60;;;30.20;56.10;;;;;;6227458;28;20311;-65
2022/07/28 11:37:10;;;;;;;4.53;4.20;;;30.20;56.00;;;;;;6227187;28;20229;-66
2022/07/28 11:40:32;;;;;;;5.10;4.60;;;30.20;55.40;;;;;;6227202;28;20236;-65
2022/07/28 11:43:37;;;;;;;5.90;4.68;;;30.50;55.00;;;;;;6227968;28;20235;-65
2022/07/28 11:46:42;;;;;;;5.05;4.25;;;30.50;53.70;;;;;;6228664;28;20240;-65
2022/07/28 11:49:46;;;;;;;5.38;4.97;;;30.50;54.30;;;;;;6228607;28;20236;-65
2022/07/28 11:52:53;;;;;;;4.88;4.40;;;30.60;54.40;;;;;;6228082;28;20236;-66
2022/07/28 11:55:58;;;;;;;5.75;4.25;;;30.80;55.30;;;;;;6227866;28;20228;-65
2022/07/28 11:59:09;;;;;;;4.90;4.50;;;31.00;54.20;;;;;;6228231;28;20379;-66
2022/07/28 12:02:20;;;;;;;7.35;4.63;;;31.10;53.40;;;;;;6227565;28;20251;-65
2022/07/28 12:05:23;;;;;;;6.32;5.82;;;31.10;53.10;;;;;;6228005;28;20274;-65
2022/07/28 12:08:27;;;;;;;7.35;5.53;;;30.70;55.00;;;;;;6227621;28;20229;-65
2022/07/28 12:11:34;;;;;;;7.57;6.23;;;30.50;55.50;;;;;;6229925;28;20207;-65
2022/07/28 12:14:42;;;;;;;6.70;5.28;;;30.20;56.50;;;;;;6228037;28;20220;-65
2022/07/28 12:17:45;;;;;;;5.53;5.13;;;30.30;56.70;;;;;;6228467;28;20239;-65
2022/07/28 12:20:51;;;;;;;5.70;5.00;;;30.50;56.20;;;;;;6227858;28;20232;-65
2022/07/28 12:23:54;;;;;;;5.75;5.15;;;30.80;56.40;;;;;;6228017;28;20776;-65
2022/07/28 12:27:00;;;;;;;5.47;5.07;;;30.70;55.00;;;;;;6227593;28;20311;-66
2022/07/28 12:30:04;;;;;;;6.53;5.38;;;30.70;55.20;;;;;;6227910;28;20543;-66
2022/07/28 12:33:16;;;;;;;6.40;5.80;;;30.30;56.50;;;;;;6227292;28;20235;-65
2022/07/28 12:36:20;;;;;;;10.90;6.72;;;30.30;55.80;;;;;;6227870;28;20232;-65
2022/07/28 12:39:24;;;;;;;8.10;6.70;;;30.50;55.70;;;;;;6227556;28;20236;-66
2022/07/28 12:42:32;;;;;;;5.45;4.95;;;30.80;55.70;;;;;;6227818;28;20251;-66
2022/07/28 12:45:44;;;;;;;8.60;6.38;;;30.80;55.60;;;;;;6227577;28;20224;-66
2022/07/28 12:48:48;;;;;;;4.78;4.38;;;30.90;55.30;;;;;;6227926;28;20232;-66
2022/07/28 12:51:51;;;;;;;5.50;4.70;;;31.00;55.10;;;;;;6227853;28;20228;-66
2022/07/28 12:54:54;;;;;;;4.93;4.63;;;31.20;55.10;;;;;;6227649;28;20695;-66
2022/07/28 12:58:01;;;;;;;9.63;5.20;;;31.40;54.00;;;;;;6226882;28;20228;-66
2022/07/28 13:01:07;;;;;;;8.13;4.97;;;31.60;53.60;;;;;;6218374;28;20251;-65
2022/07/28 13:04:11;;;;;;;10.98;7.18;;;31.10;54.10;;;;;;6227199;28;20239;-66
2022/07/28 13:07:24;;;;;;;7.28;5.95;;;31.00;54.70;;;;;;6226858;28;20247;-66
2022/07/28 13:10:28;;;;;;;6.45;5.38;;;31.10;54.70;;;;;;6226808;28;20359;-66
2022/07/28 13:13:46;;;;;;;5.20;4.70;;;31.20;54.30;;;;;;6227281;28;20236;-66
2022/07/28 13:16:57;;;;;;;5.10;4.70;;;31.00;54.90;;;;;;6226416;28;20688;-65
2022/07/28 13:20:06;;;;;;;5.78;5.18;;;30.80;54.80;;;;;;6227136;28;20232;-65
2022/07/28 13:23:09;;;;;;;6.15;5.38;;;30.90;55.30;;;;;;6227072;28;20244;-65
2022/07/28 13:26:12;;;;;;;15.05;7.50;;;30.90;55.00;;;;;;6228580;28;20234;-66
2022/07/28 13:29:17;;;;;;;7.45;5.50;;;31.00;55.10;;;;;;6233355;28;20225;-67
2022/07/28 13:32:20;;;;;;;5.22;4.68;;;31.10;55.40;;;;;;6266012;28;20223;-66
2022/07/28 13:35:23;;;;;;;6.85;5.22;;;31.00;54.40;;;;;;6259822;28;20210;-67
2022/07/28 13:38:26;;;;;;;6.75;5.68;;;31.00;55.00;;;;;;6249661;28;20216;-66
2022/07/28 13:41:29;;;;;;;7.60;7.00;;;31.10;55.00;;;;;;6256782;28;20693;-67
2022/07/28 13:44:54;;;;;;;5.65;5.25;;;31.00;54.40;;;;;;6267746;28;20220;-66
2022/07/28 13:47:58;;;;;;;6.55;6.03;;;31.10;55.00;;;;;;6249868;28;20228;-66
2022/07/28 13:51:02;;;;;;;5.97;5.38;;;31.00;54.80;;;;;;6249878;28;20583;-67
2022/07/28 13:54:05;;;;;;;7.10;5.93;;;30.80;55.70;;;;;;6250509;28;20227;-66
2022/07/28 13:57:09;;;;;;;6.57;6.07;;;30.60;55.80;;;;;;6251617;28;20227;-67
2022/07/28 14:00:16;;;;;;;5.75;5.25;;;30.50;56.00;;;;;;6274668;28;20698;-66
2022/07/28 14:03:20;;;;;;;9.13;5.55;;;30.20;56.60;;;;;;6274848;28;20247;-67
2022/07/28 14:06:23;;;;;;;10.23;6.28;;;30.10;56.20;;;;;;6269522;28;20711;-67
2022/07/28 14:09:27;;;;;;;5.38;4.97;;;30.20;56.70;;;;;;6281888;28;20238;-66
2022/07/28 14:12:30;;;;;;;5.85;5.45;;;30.10;56.20;;;;;;6286613;28;20582;-67
2022/07/28 14:15:35;;;;;;;5.60;5.20;;;29.70;56.70;;;;;;6268716;28;20227;-66
2022/07/28 14:18:38;;;;;;;5.20;4.80;;;29.80;56.50;;;;;;6252566;28;20243;-67
2022/07/28 14:21:41;;;;;;;6.80;4.50;;;30.10;56.40;;;;;;6252011;28;20817;-65
2022/07/28 14:24:44;;;;;;;5.68;5.28;;;30.30;56.50;;;;;;6255050;28;20238;-66
2022/07/28 14:27:47;;;;;;;5.70;5.30;;;30.10;55.90;;;;;;6278722;28;20223;-65
2022/07/28 14:30:52;;;;;;;5.33;4.93;;;29.70;56.60;;;;;;6279492;28;20227;-65
2022/07/28 14:33:55;;;;;;;5.80;5.37;;;29.70;57.00;;;;;;6274179;28;20231;-65
2022/07/28 14:36:58;;;;;;;6.23;5.70;;;29.80;57.70;;;;;;6275833;28;20289;-65
2022/07/28 14:40:02;;;;;;;6.17;5.67;;;29.80;58.00;;;;;;6278883;28;20235;-67
2022/07/28 14:43:06;;;;;;;6.07;5.57;;;30.00;57.50;;;;;;6261973;28;20232;-66
2022/07/28 14:46:11;;;;;;;6.57;5.70;;;30.20;57.00;;;;;;6253949;28;20242;-64
2022/07/28 14:49:23;;;;;;;7.60;5.53;;;30.20;57.10;;;;;;6264363;28;20233;-64
2022/07/28 14:52:28;;;;;;;5.97;5.47;;;30.20;57.40;;;;;;6278770;28;20258;-63
2022/07/28 14:55:31;;;;;;;6.10;5.60;;;30.30;56.80;;;;;;6278312;28;20242;-63
2022/07/28 14:58:34;;;;;;;5.15;4.65;;;30.30;56.30;;;;;;6278247;28;20318;-64
2022/07/28 15:01:39;;;;;;;6.70;5.57;;;30.10;56.70;;;;;;6278219;28;20243;-65
2022/07/28 15:04:42;;;;;;;5.00;4.70;;;29.80;57.60;;;;;;6276598;28;20254;-64
2022/07/28 15:07:47;;;;;;;5.63;5.23;;;29.60;57.90;;;;;;6275688;28;20598;-64
2022/07/28 15:10:53;;;;;;;5.93;5.43;;;29.50;57.90;;;;;;6266585;28;20246;-64
2022/07/28 15:13:56;;;;;;;6.07;5.40;;;29.60;58.50;;;;;;6275555;28;20222;-66
2022/07/28 15:17:01;;;;;;;7.33;5.93;;;29.60;58.20;;;;;;6274745;28;20245;-66
2022/07/28 15:20:06;;;;;;;5.53;5.13;;;29.60;58.00;;;;;;6277202;28;20288;-65
2022/07/28 15:23:10;;;;;;;6.73;6.23;;;29.80;57.70;;;;;;6278479;28;20227;-66
2022/07/28 15:26:13;;;;;;;6.37;5.77;;;29.90;57.10;;;;;;6279153;28;20238;-65
2022/07/28 15:29:18;;;;;;;5.20;4.80;;;30.10;57.10;;;;;;6277601;28;20227;-66
2022/07/28 15:32:24;;;;;;;5.50;5.10;;;30.20;56.30;;;;;;6278251;28;20689;-66
2022/07/28 15:35:30;;;;;;;6.07;5.57;;;30.30;56.30;;;;;;6278429;28;20187;-66
2022/07/28 15:38:54;;;;;;;5.77;5.30;;;30.10;56.70;;;;;;6277628;28;20231;-66
2022/07/28 15:41:57;;;;;;;6.10;5.60;;;30.00;57.10;;;;;;6277018;28;20227;-66
2022/07/28 15:45:00;;;;;;;5.83;5.33;;;29.70;57.40;;;;;;6277731;28;20882;-66
2022/07/28 15:48:05;;;;;;;6.37;5.87;;;29.40;58.10;;;;;;6276935;28;20357;-66
2022/07/28 15:51:09;;;;;;;6.37;5.77;;;29.50;58.30;;;;;;6253234;28;20228;-66
2022/07/28 15:54:12;;;;;;;5.93;5.43;;;29.50;57.90;;;;;;6252794;28;20224;-65
2022/07/28 15:57:18;;;;;;;6.23;5.63;;;29.40;58.30;;;;;;6252515;28;20318;-66
2022/07/28 16:00:21;;;;;;;6.30;5.80;;;29.50;58.50;;;;;;6251948;28;20255;-66
2022/07/28 16:03:26;;;;;;;6.40;5.80;;;29.60;57.90;;;;;;6252453;28;20239;-66
2022/07/28 16:07:17;;;;;;;6.40;5.90;;;29.50;57.80;;;;;;6252224;28;20575;-66